SAS963 EKCH-LSZH
Flight info
| Callsign | SAS963 |
|---|---|
| Flight time | N/A |
| Altitude | 40000 |
| Route | NEXEN T503 GIMRU DCT MICOS DCT TOLGI DCT SWALM DCT OMOGI/N0444F390 T721 RILAX |
| Aircraft | A333/H-SDE1E3FGHIJ3J4J5M1P2RWXYZ/LB1D |
Departure
| Time | 2026-04-26 16:47 |
|---|---|
| Airport | Copenhagen Kastrup Airport (EKCH) |
Arrival
| Time | N/A |
|---|---|
| Airport | Zürich Airport (LSZH) |
| Time | Latitude | Longitude | Altitude | Speed | Heading |
|---|---|---|---|---|---|
| 2026-04-26 16:12 | 55.62500 | 12.65460 | 21 ft | 0 kts | 0° |
| 2026-04-26 16:36 | 55.62467 | 12.65461 | 25 ft | 6 kts | 355° |
| 2026-04-26 16:36 | 55.62450 | 12.65468 | 25 ft | 2 kts | 315° |
| 2026-04-26 16:36 | 55.62443 | 12.65487 | 26 ft | 2 kts | 287° |
| 2026-04-26 16:37 | 55.62440 | 12.65506 | 25 ft | 2 kts | 282° |
| 2026-04-26 16:37 | 55.62439 | 12.65515 | 26 ft | 0 kts | 282° |
| 2026-04-26 16:38 | 55.62440 | 12.65473 | 25 ft | 9 kts | 272° |
| 2026-04-26 16:38 | 55.62405 | 12.65339 | 26 ft | 15 kts | 211° |
| 2026-04-26 16:38 | 55.62319 | 12.65319 | 27 ft | 9 kts | 208° |
| 2026-04-26 16:38 | 55.62284 | 12.65229 | 30 ft | 9 kts | 233° |
| 2026-04-26 16:39 | 55.62232 | 12.65193 | 26 ft | 4 kts | 195° |
| 2026-04-26 16:39 | 55.62226 | 12.65189 | 27 ft | 0 kts | 203° |
| 2026-04-26 16:40 | 55.62224 | 12.65187 | 27 ft | 1 kts | 204° |
| 2026-04-26 16:41 | 55.62196 | 12.65166 | 27 ft | 6 kts | 204° |
| 2026-04-26 16:41 | 55.62161 | 12.65125 | 28 ft | 7 kts | 213° |
| 2026-04-26 16:41 | 55.62104 | 12.65061 | 26 ft | 12 kts | 213° |
| 2026-04-26 16:41 | 55.62018 | 12.64962 | 29 ft | 17 kts | 213° |
| 2026-04-26 16:42 | 55.61911 | 12.64839 | 23 ft | 20 kts | 213° |
| 2026-04-26 16:42 | 55.61799 | 12.64709 | 26 ft | 19 kts | 213° |
| 2026-04-26 16:42 | 55.61690 | 12.64583 | 25 ft | 19 kts | 213° |
| 2026-04-26 16:42 | 55.61579 | 12.64456 | 25 ft | 20 kts | 213° |
| 2026-04-26 16:43 | 55.61465 | 12.64325 | 25 ft | 20 kts | 212° |
| 2026-04-26 16:43 | 55.61343 | 12.64187 | 23 ft | 21 kts | 213° |
| 2026-04-26 16:43 | 55.61218 | 12.64042 | 19 ft | 22 kts | 213° |
| 2026-04-26 16:43 | 55.61098 | 12.63901 | 26 ft | 20 kts | 214° |
| 2026-04-26 16:44 | 55.60985 | 12.63772 | 30 ft | 18 kts | 214° |
| 2026-04-26 16:44 | 55.60876 | 12.63646 | 27 ft | 19 kts | 212° |
| 2026-04-26 16:44 | 55.60763 | 12.63517 | 27 ft | 20 kts | 213° |
| 2026-04-26 16:44 | 55.60645 | 12.63375 | 28 ft | 20 kts | 218° |
| 2026-04-26 16:45 | 55.60540 | 12.63217 | 29 ft | 20 kts | 221° |
| 2026-04-26 16:45 | 55.60435 | 12.63123 | 29 ft | 16 kts | 170° |
| 2026-04-26 16:45 | 55.60358 | 12.63242 | 31 ft | 15 kts | 128° |
| 2026-04-26 16:45 | 55.60368 | 12.63393 | 32 ft | 14 kts | 53° |
| 2026-04-26 16:46 | 55.60391 | 12.63432 | 31 ft | 3 kts | 41° |
| 2026-04-26 16:46 | 55.60579 | 12.63722 | 27 ft | 72 kts | 41° |
| 2026-04-26 16:46 | 55.61129 | 12.64574 | 28 ft | 137 kts | 41° |
| 2026-04-26 16:46 | 55.61981 | 12.65883 | 317 ft | 175 kts | 35° |
| 2026-04-26 16:47 | 55.62940 | 12.67447 | 991 ft | 197 kts | 42° |
| 2026-04-26 16:47 | 55.63966 | 12.69190 | 1697 ft | 209 kts | 39° |
| 2026-04-26 16:47 | 55.65129 | 12.70941 | 2049 ft | 231 kts | 37° |
| 2026-04-26 16:47 | 55.66417 | 12.72788 | 2464 ft | 249 kts | 36° |
| 2026-04-26 16:48 | 55.67776 | 12.74763 | 3117 ft | 255 kts | 36° |
| 2026-04-26 16:48 | 55.69145 | 12.76812 | 3791 ft | 261 kts | 40° |
| 2026-04-26 16:48 | 55.70256 | 12.79423 | 4438 ft | 272 kts | 64° |
| 2026-04-26 16:48 | 55.70562 | 12.82743 | 5114 ft | 280 kts | 96° |
| 2026-04-26 16:49 | 55.69847 | 12.85947 | 5804 ft | 284 kts | 129° |
| 2026-04-26 16:49 | 55.68307 | 12.88084 | 6516 ft | 282 kts | 157° |
| 2026-04-26 16:49 | 55.66478 | 12.89377 | 7204 ft | 285 kts | 163° |
| 2026-04-26 16:49 | 55.64577 | 12.90541 | 7825 ft | 291 kts | 163° |
| 2026-04-26 16:50 | 55.62626 | 12.91630 | 8488 ft | 296 kts | 171° |
| 2026-04-26 16:50 | 55.60584 | 12.91727 | 9135 ft | 294 kts | 196° |
| 2026-04-26 16:50 | 55.58755 | 12.90234 | 9766 ft | 290 kts | 223° |
| 2026-04-26 16:50 | 55.57276 | 12.87809 | 10413 ft | 291 kts | 231° |
| 2026-04-26 16:51 | 55.55865 | 12.85183 | 10760 ft | 307 kts | 232° |
| 2026-04-26 16:51 | 55.54362 | 12.82362 | 11014 ft | 325 kts | 232° |
| 2026-04-26 16:51 | 55.52755 | 12.79381 | 11313 ft | 341 kts | 231° |
| 2026-04-26 16:51 | 55.51132 | 12.76264 | 11838 ft | 348 kts | 234° |
| 2026-04-26 16:52 | 55.49557 | 12.72996 | 12509 ft | 351 kts | 235° |
| 2026-04-26 16:52 | 55.49027 | 12.71882 | 12762 ft | 352 kts | 236° |
| 2026-04-26 16:52 | 55.46403 | 12.66362 | 13985 ft | 356 kts | 236° |
| 2026-04-26 16:52 | 55.44807 | 12.63010 | 14630 ft | 359 kts | 236° |
| 2026-04-26 16:53 | 55.43192 | 12.59626 | 15250 ft | 362 kts | 236° |
| 2026-04-26 16:53 | 55.41563 | 12.56221 | 15877 ft | 365 kts | 236° |
| 2026-04-26 16:53 | 55.39915 | 12.52781 | 16508 ft | 368 kts | 236° |
| 2026-04-26 16:53 | 55.38258 | 12.49328 | 17121 ft | 371 kts | 236° |
| 2026-04-26 16:54 | 55.36585 | 12.45848 | 17719 ft | 374 kts | 236° |
| 2026-04-26 16:54 | 55.34892 | 12.42331 | 18338 ft | 377 kts | 236° |
| 2026-04-26 16:54 | 55.33186 | 12.38791 | 18868 ft | 381 kts | 236° |
| 2026-04-26 16:54 | 55.31470 | 12.35236 | 19385 ft | 383 kts | 236° |
| 2026-04-26 16:55 | 55.29740 | 12.31658 | 19895 ft | 385 kts | 236° |
| 2026-04-26 16:55 | 55.28000 | 12.28066 | 20414 ft | 388 kts | 235° |
| 2026-04-26 16:55 | 55.26244 | 12.24444 | 20915 ft | 390 kts | 235° |
| 2026-04-26 16:55 | 55.24479 | 12.20810 | 21406 ft | 392 kts | 235° |
| 2026-04-26 16:56 | 55.20877 | 12.13538 | 22341 ft | 399 kts | 231° |
| 2026-04-26 16:56 | 55.18779 | 12.10300 | 22810 ft | 406 kts | 223° |
| 2026-04-26 16:56 | 55.16533 | 12.07353 | 23291 ft | 409 kts | 221° |
| 2026-04-26 16:57 | 55.14227 | 12.04421 | 23765 ft | 411 kts | 221° |
| 2026-04-26 16:57 | 55.11909 | 12.01482 | 24136 ft | 413 kts | 221° |
| 2026-04-26 16:57 | 55.07223 | 11.95530 | 24846 ft | 418 kts | 221° |
| 2026-04-26 16:58 | 55.04862 | 11.92532 | 25194 ft | 420 kts | 221° |
| 2026-04-26 16:58 | 55.04066 | 11.91521 | 25318 ft | 421 kts | 221° |
| 2026-04-26 16:58 | 54.97719 | 11.83477 | 26250 ft | 427 kts | 221° |
| 2026-04-26 16:59 | 54.95314 | 11.80435 | 26586 ft | 429 kts | 221° |
| 2026-04-26 16:59 | 54.90465 | 11.74319 | 27291 ft | 432 kts | 221° |
| 2026-04-26 17:00 | 54.85572 | 11.68164 | 27925 ft | 437 kts | 221° |
| 2026-04-26 17:00 | 54.80657 | 11.61999 | 28610 ft | 440 kts | 221° |
| 2026-04-26 17:00 | 54.78167 | 11.58883 | 28918 ft | 442 kts | 221° |
| 2026-04-26 17:01 | 54.75662 | 11.55752 | 29209 ft | 445 kts | 221° |
| 2026-04-26 17:01 | 54.73148 | 11.52615 | 29510 ft | 447 kts | 221° |
| 2026-04-26 17:01 | 54.70625 | 11.49472 | 29805 ft | 449 kts | 220° |
| 2026-04-26 17:01 | 54.68082 | 11.46311 | 30152 ft | 450 kts | 220° |
| 2026-04-26 17:02 | 54.65536 | 11.43150 | 30414 ft | 452 kts | 220° |
| 2026-04-26 17:02 | 54.63835 | 11.41043 | 30584 ft | 454 kts | 220° |
| 2026-04-26 17:02 | 54.61259 | 11.37852 | 30841 ft | 455 kts | 220° |
| 2026-04-26 17:02 | 54.58679 | 11.34665 | 31041 ft | 458 kts | 220° |
| 2026-04-26 17:03 | 54.56082 | 11.31464 | 31224 ft | 461 kts | 220° |
| 2026-04-26 17:03 | 54.53462 | 11.28251 | 31462 ft | 462 kts | 220° |
| 2026-04-26 17:03 | 54.50835 | 11.25048 | 31754 ft | 462 kts | 220° |
| 2026-04-26 17:03 | 54.48208 | 11.21859 | 32097 ft | 460 kts | 220° |
| 2026-04-26 17:04 | 54.45597 | 11.18696 | 32532 ft | 457 kts | 220° |
| 2026-04-26 17:04 | 54.43001 | 11.15554 | 32890 ft | 456 kts | 220° |
| 2026-04-26 17:04 | 54.40413 | 11.12425 | 33193 ft | 455 kts | 220° |
| 2026-04-26 17:04 | 54.37831 | 11.09305 | 33522 ft | 454 kts | 220° |
| 2026-04-26 17:05 | 54.35240 | 11.06178 | 33828 ft | 453 kts | 220° |
| 2026-04-26 17:05 | 54.32653 | 11.03103 | 34122 ft | 454 kts | 217° |
| 2026-04-26 17:05 | 54.29891 | 11.00431 | 34382 ft | 458 kts | 210° |
| 2026-04-26 17:05 | 54.26945 | 10.98253 | 34598 ft | 461 kts | 207° |
| 2026-04-26 17:06 | 54.23997 | 10.96274 | 34784 ft | 461 kts | 206° |
| 2026-04-26 17:06 | 54.20995 | 10.94367 | 35031 ft | 461 kts | 205° |
| 2026-04-26 17:06 | 54.17967 | 10.92491 | 35231 ft | 461 kts | 205° |
| 2026-04-26 17:06 | 54.14946 | 10.90633 | 35414 ft | 462 kts | 205° |
| 2026-04-26 17:07 | 54.11926 | 10.88773 | 35600 ft | 462 kts | 205° |
| 2026-04-26 17:07 | 54.08905 | 10.86905 | 35789 ft | 462 kts | 205° |
| 2026-04-26 17:07 | 54.05871 | 10.85021 | 35958 ft | 462 kts | 205° |
| 2026-04-26 17:07 | 54.02854 | 10.83144 | 36159 ft | 462 kts | 205° |
| 2026-04-26 17:08 | 53.99823 | 10.81257 | 36321 ft | 462 kts | 205° |
| 2026-04-26 17:08 | 53.96808 | 10.79381 | 36541 ft | 462 kts | 205° |
| 2026-04-26 17:08 | 53.93792 | 10.77507 | 36706 ft | 462 kts | 205° |
| 2026-04-26 17:08 | 53.90766 | 10.75629 | 36861 ft | 462 kts | 205° |
| 2026-04-26 17:09 | 53.87745 | 10.73758 | 37020 ft | 462 kts | 205° |
| 2026-04-26 17:09 | 53.85737 | 10.72516 | 37122 ft | 463 kts | 205° |
| 2026-04-26 17:09 | 53.81695 | 10.70020 | 37325 ft | 463 kts | 205° |
| 2026-04-26 17:09 | 53.78661 | 10.68151 | 37479 ft | 463 kts | 205° |
| 2026-04-26 17:10 | 53.75665 | 10.66308 | 37632 ft | 463 kts | 205° |
| 2026-04-26 17:10 | 53.72632 | 10.64445 | 37807 ft | 463 kts | 205° |
| 2026-04-26 17:10 | 53.69598 | 10.62585 | 37956 ft | 463 kts | 205° |
| 2026-04-26 17:10 | 53.66569 | 10.60729 | 38100 ft | 463 kts | 205° |
| 2026-04-26 17:11 | 53.63545 | 10.58880 | 38220 ft | 463 kts | 204° |
| 2026-04-26 17:11 | 53.60516 | 10.57031 | 38366 ft | 463 kts | 204° |
| 2026-04-26 17:11 | 53.57477 | 10.55179 | 38489 ft | 463 kts | 204° |
| 2026-04-26 17:11 | 53.54482 | 10.53355 | 38606 ft | 464 kts | 204° |
| 2026-04-26 17:12 | 53.48374 | 10.49647 | 38869 ft | 463 kts | 204° |
| 2026-04-26 17:12 | 53.45346 | 10.47812 | 38977 ft | 463 kts | 204° |
| 2026-04-26 17:13 | 53.39303 | 10.44160 | 39162 ft | 464 kts | 204° |
| 2026-04-26 17:13 | 53.36283 | 10.42338 | 39239 ft | 464 kts | 204° |
| 2026-04-26 17:13 | 53.30197 | 10.38675 | 39424 ft | 464 kts | 204° |
| 2026-04-26 17:14 | 53.27155 | 10.36848 | 39461 ft | 465 kts | 204° |
| 2026-04-26 17:14 | 53.21044 | 10.33186 | 39584 ft | 466 kts | 204° |
| 2026-04-26 17:14 | 53.17985 | 10.31359 | 39673 ft | 466 kts | 204° |
| 2026-04-26 17:15 | 53.11874 | 10.27715 | 39834 ft | 467 kts | 204° |
| 2026-04-26 17:15 | 53.08815 | 10.25895 | 39891 ft | 467 kts | 204° |
| 2026-04-26 17:16 | 53.02680 | 10.22254 | 40004 ft | 468 kts | 204° |
| 2026-04-26 17:16 | 52.96557 | 10.18629 | 40111 ft | 470 kts | 204° |
| 2026-04-26 17:17 | 52.90389 | 10.14990 | 40204 ft | 471 kts | 204° |
| 2026-04-26 17:17 | 52.84200 | 10.11348 | 40258 ft | 473 kts | 204° |
| 2026-04-26 17:18 | 52.77979 | 10.07699 | 40290 ft | 476 kts | 203° |
| 2026-04-26 17:18 | 52.71722 | 10.04041 | 40291 ft | 479 kts | 203° |
| 2026-04-26 17:19 | 52.62235 | 9.98514 | 40296 ft | 484 kts | 203° |
| 2026-04-26 17:19 | 52.55850 | 9.94809 | 40293 ft | 487 kts | 203° |
| 2026-04-26 17:20 | 52.50510 | 9.91721 | 40293 ft | 490 kts | 203° |
| 2026-04-26 17:20 | 52.43017 | 9.87400 | 40291 ft | 491 kts | 203° |
| 2026-04-26 17:21 | 52.36548 | 9.83683 | 40291 ft | 491 kts | 203° |
| 2026-04-26 17:21 | 52.30090 | 9.79984 | 40288 ft | 491 kts | 203° |
| 2026-04-26 17:22 | 52.23642 | 9.76304 | 40316 ft | 491 kts | 203° |
| 2026-04-26 17:22 | 52.17231 | 9.72656 | 40520 ft | 489 kts | 203° |
| 2026-04-26 17:23 | 52.10819 | 9.69015 | 40694 ft | 487 kts | 203° |
| 2026-04-26 17:23 | 52.04403 | 9.65378 | 40844 ft | 486 kts | 202° |
| 2026-04-26 17:24 | 51.98067 | 9.61794 | 40972 ft | 486 kts | 202° |
| 2026-04-26 17:24 | 51.91675 | 9.58185 | 41105 ft | 485 kts | 202° |
| 2026-04-26 17:25 | 51.85301 | 9.54591 | 41193 ft | 485 kts | 202° |
| 2026-04-26 17:25 | 51.78927 | 9.51001 | 41292 ft | 485 kts | 202° |
| 2026-04-26 17:26 | 51.72537 | 9.47409 | 41391 ft | 485 kts | 202° |
| 2026-04-26 17:26 | 51.66154 | 9.43824 | 41458 ft | 486 kts | 202° |
| 2026-04-26 17:27 | 51.59801 | 9.40257 | 41538 ft | 486 kts | 202° |
| 2026-04-26 17:27 | 51.53409 | 9.36669 | 41616 ft | 486 kts | 202° |
| 2026-04-26 17:28 | 51.47021 | 9.33083 | 41679 ft | 486 kts | 202° |
| 2026-04-26 17:28 | 51.40640 | 9.29502 | 41758 ft | 486 kts | 202° |
| 2026-04-26 17:29 | 51.35344 | 9.26531 | 41827 ft | 485 kts | 202° |
| 2026-04-26 17:29 | 51.27890 | 9.22350 | 41918 ft | 485 kts | 202° |
| 2026-04-26 17:30 | 51.21557 | 9.18801 | 42007 ft | 485 kts | 202° |
| 2026-04-26 17:30 | 51.15184 | 9.15230 | 42052 ft | 485 kts | 202° |
| 2026-04-26 17:31 | 51.10491 | 9.12601 | 42085 ft | 485 kts | 202° |